createdAt,value
2022-11-22T00:01:30.342Z,13.20
2022-11-22T00:03:56.964Z,13.35
2022-11-22T00:06:23.616Z,12.48
2022-11-22T00:08:50.288Z,13.55
2022-11-22T00:11:16.936Z,15.27
2022-11-22T00:13:43.593Z,14.80
2022-11-22T00:16:10.342Z,13.38
2022-11-22T00:18:36.995Z,13.63
2022-11-22T00:21:08.215Z,12.75
2022-11-22T00:23:34.891Z,13.85
2022-11-22T00:26:01.508Z,15.95
2022-11-22T00:28:28.145Z,14.23
2022-11-22T00:30:54.794Z,14.55
2022-11-22T00:33:21.431Z,13.95
2022-11-22T00:35:48.180Z,14.57
2022-11-22T00:38:14.840Z,13.30
2022-11-22T00:40:41.466Z,13.77
2022-11-22T00:43:08.130Z,14.68
2022-11-22T00:45:34.794Z,14.05
2022-11-22T00:48:01.424Z,13.90
2022-11-22T00:50:28.084Z,15.68
2022-11-22T00:52:54.715Z,16.02
2022-11-22T00:55:21.378Z,15.75
2022-11-22T00:57:48.011Z,16.30
2022-11-22T01:00:14.910Z,15.55
2022-11-22T01:02:41.562Z,15.23
2022-11-22T01:05:08.538Z,14.68
2022-11-22T01:07:35.393Z,16.67
2022-11-22T01:10:02.143Z,15.18
2022-11-22T01:12:28.960Z,18.65
2022-11-22T01:14:55.751Z,16.10
2022-11-22T01:17:22.486Z,15.68
2022-11-22T01:19:49.206Z,16.88
2022-11-22T01:22:15.853Z,21.63
2022-11-22T01:24:42.494Z,17.27
2022-11-22T01:27:09.141Z,15.32
2022-11-22T01:29:35.776Z,15.85
2022-11-22T01:32:02.420Z,15.30
2022-11-22T01:34:29.128Z,15.55
2022-11-22T01:36:55.827Z,17.20
2022-11-22T01:39:22.497Z,15.85
2022-11-22T01:41:49.258Z,15.70
2022-11-22T01:44:25.619Z,15.55
2022-11-22T01:47:24.580Z,16.90
2022-11-22T01:49:54.854Z,16.73
2022-11-22T01:52:24.525Z,15.93
2022-11-22T01:54:59.802Z,15.48
2022-11-22T01:57:30.121Z,15.82
2022-11-22T02:00:00.769Z,16.10
2022-11-22T02:02:28.251Z,16.58
2022-11-22T02:04:55.618Z,16.25
2022-11-22T02:07:44.482Z,16.38
2022-11-22T02:10:11.684Z,17.63
2022-11-22T02:12:38.965Z,16.90
2022-11-22T02:15:07.251Z,17.92
2022-11-22T02:17:34.306Z,15.68
2022-11-22T02:20:00.951Z,17.17
2022-11-22T02:22:36.399Z,17.45
2022-11-22T02:25:33.564Z,16.25
2022-11-22T02:28:00.210Z,20.65
2022-11-22T02:30:26.888Z,15.65
2022-11-22T02:32:53.570Z,14.65
2022-11-22T02:35:22.838Z,15.30
2022-11-22T02:38:01.475Z,15.95
2022-11-22T02:40:29.818Z,15.77
2022-11-22T02:43:02.662Z,15.10
2022-11-22T02:45:29.441Z,16.92
2022-11-22T02:48:13.466Z,18.60
2022-11-22T02:50:40.336Z,15.95
2022-11-22T02:53:08.078Z,15.65
2022-11-22T02:55:35.363Z,19.33
2022-11-22T02:58:02.454Z,16.33
2022-11-22T03:00:29.116Z,15.07
2022-11-22T03:02:55.816Z,18.48
2022-11-22T03:05:22.471Z,16.10
2022-11-22T03:07:50.547Z,17.73
2022-11-22T03:10:17.483Z,17.20
2022-11-22T03:12:44.143Z,16.52
2022-11-22T03:15:11.212Z,15.07
2022-11-22T03:17:38.047Z,15.23
2022-11-22T03:20:05.315Z,18.67
2022-11-22T03:22:32.052Z,17.85
2022-11-22T03:24:58.687Z,17.20
2022-11-22T03:27:25.341Z,17.67
2022-11-22T03:29:51.982Z,14.70
2022-11-22T03:32:18.623Z,15.77
2022-11-22T03:34:45.266Z,15.70
2022-11-22T03:37:11.911Z,16.42
2022-11-22T03:39:38.580Z,15.85
2022-11-22T03:42:05.234Z,16.08
2022-11-22T03:44:31.851Z,16.10
2022-11-22T03:46:58.551Z,15.57
2022-11-22T03:49:25.215Z,15.38
2022-11-22T03:51:51.847Z,15.52
2022-11-22T03:54:18.560Z,17.83
2022-11-22T03:56:45.178Z,17.73
2022-11-22T03:59:11.833Z,16.92
2022-11-22T04:01:38.516Z,16.08
2022-11-22T04:04:05.380Z,17.73
2022-11-22T04:06:32.024Z,16.27
2022-11-22T04:08:58.793Z,17.67
2022-11-22T04:11:25.577Z,16.15
2022-11-22T04:14:10.917Z,17.38
2022-11-22T04:16:37.574Z,18.83
2022-11-22T04:19:04.197Z,18.70
2022-11-22T04:21:36.812Z,18.15
2022-11-22T04:24:24.938Z,18.55
2022-11-22T04:26:51.772Z,18.85
2022-11-22T04:29:18.677Z,19.17
2022-11-22T04:32:03.895Z,19.85
2022-11-22T04:34:30.786Z,21.63
2022-11-22T04:36:57.434Z,21.02
2022-11-22T04:39:24.123Z,21.50
2022-11-22T04:42:14.988Z,21.27
2022-11-22T04:44:42.402Z,25.90
2022-11-22T04:47:13.378Z,24.52
2022-11-22T04:49:40.058Z,27.48
2022-11-22T04:52:25.610Z,20.65
2022-11-22T04:54:52.260Z,23.05
2022-11-22T04:57:18.939Z,20.65
2022-11-22T04:59:45.594Z,19.90
2022-11-22T05:02:12.280Z,20.05
2022-11-22T05:04:38.976Z,21.00
2022-11-22T05:07:05.748Z,23.23
2022-11-22T05:09:32.539Z,22.63
2022-11-22T05:11:59.526Z,20.98
2022-11-22T05:14:26.155Z,22.40
2022-11-22T05:16:52.823Z,19.63
2022-11-22T05:19:19.482Z,21.05
2022-11-22T05:21:46.101Z,20.60
2022-11-22T05:24:12.824Z,21.45
2022-11-22T05:26:39.482Z,22.02
2022-11-22T05:29:08.220Z,45.22
2022-11-22T05:31:36.516Z,41.53
2022-11-22T05:34:03.993Z,35.47
2022-11-22T05:36:33.044Z,33.13
2022-11-22T05:39:00.091Z,20.75
2022-11-22T05:41:26.845Z,28.33
2022-11-22T05:43:57.161Z,21.50
2022-11-22T05:46:26.521Z,21.65
2022-11-22T05:51:30.540Z,24.33
2022-11-22T05:54:00.542Z,24.80
2022-11-22T05:56:27.247Z,23.88
2022-11-22T05:58:53.919Z,23.05
2022-11-22T06:01:22.631Z,22.08
2022-11-22T06:03:50.210Z,25.65
2022-11-22T06:06:17.145Z,23.55
2022-11-22T06:08:48.468Z,23.35
2022-11-22T06:11:16.722Z,23.75
2022-11-22T06:13:44.506Z,23.10
2022-11-22T06:16:11.365Z,29.60
2022-11-22T06:18:38.430Z,24.90
2022-11-22T06:21:07.291Z,25.40
2022-11-22T06:23:34.121Z,24.15
2022-11-22T06:26:02.985Z,25.30
2022-11-22T06:28:30.779Z,21.55
2022-11-22T06:31:17.959Z,27.98
2022-11-22T06:33:45.147Z,26.15
2022-11-22T06:36:22.720Z,18.02
2022-11-22T06:38:49.426Z,20.73
2022-11-22T06:41:18.259Z,20.40
2022-11-22T06:43:48.974Z,19.55
2022-11-22T06:46:20.518Z,19.63
2022-11-22T06:48:47.956Z,22.67
2022-11-22T06:51:19.198Z,19.73
2022-11-22T06:53:48.265Z,22.90
2022-11-22T06:56:21.076Z,20.17
2022-11-22T06:58:49.258Z,22.02
2022-11-22T07:01:26.496Z,17.75
2022-11-22T07:03:59.211Z,24.48
2022-11-22T07:06:31.249Z,18.95
2022-11-22T07:08:59.354Z,23.90
2022-11-22T07:11:28.127Z,21.35
2022-11-22T07:13:58.100Z,21.00
2022-11-22T07:16:27.034Z,22.27
2022-11-22T07:18:53.746Z,23.13
2022-11-22T07:21:24.744Z,24.35
2022-11-22T07:23:53.953Z,20.70
2022-11-22T07:28:48.691Z,21.52
2022-11-22T07:31:16.910Z,20.42
2022-11-22T07:33:44.404Z,18.95
2022-11-22T07:36:13.620Z,16.10
2022-11-22T07:41:07.427Z,22.15
2022-11-22T07:43:34.462Z,20.52
2022-11-22T07:46:06.514Z,22.63
2022-11-22T07:48:33.283Z,19.58
2022-11-22T07:51:07.197Z,24.20
2022-11-22T07:53:35.090Z,22.92
2022-11-22T07:56:05.383Z,18.08
2022-11-22T07:58:32.869Z,17.80
2022-11-22T08:01:07.880Z,22.23
2022-11-22T08:03:34.899Z,19.23
2022-11-22T08:06:02.558Z,22.85
2022-11-22T08:08:29.624Z,20.33
2022-11-22T08:10:56.479Z,19.67
2022-11-22T08:13:23.388Z,23.35
2022-11-22T08:15:53.312Z,25.00
2022-11-22T08:18:21.537Z,16.50
2022-11-22T08:20:48.147Z,22.33
2022-11-22T08:23:14.844Z,26.52
2022-11-22T08:25:41.512Z,20.42
2022-11-22T08:28:08.276Z,21.00
2022-11-22T08:30:34.975Z,21.90
2022-11-22T08:33:01.607Z,20.10
2022-11-22T08:35:28.281Z,17.80
2022-11-22T08:37:56.732Z,22.23
2022-11-22T08:40:23.398Z,18.27
2022-11-22T08:42:50.107Z,25.50
2022-11-22T08:45:16.898Z,19.88
2022-11-22T08:47:43.626Z,20.60
2022-11-22T08:50:10.368Z,17.17
2022-11-22T08:52:37.012Z,18.92
2022-11-22T08:55:03.812Z,16.95
2022-11-22T08:57:30.418Z,27.95
2022-11-22T08:59:57.088Z,20.13
2022-11-22T09:02:23.735Z,16.02
2022-11-22T09:04:50.346Z,19.13
2022-11-22T09:10:05.753Z,26.50
2022-11-22T09:12:32.725Z,17.48
2022-11-22T09:14:59.553Z,15.65
2022-11-22T09:17:26.229Z,22.40
2022-11-22T09:19:52.917Z,16.23
2022-11-22T09:22:21.796Z,17.20
2022-11-22T09:24:50.701Z,16.40
2022-11-22T09:27:17.362Z,16.50
2022-11-22T09:29:43.998Z,20.13
2022-11-22T09:32:10.770Z,15.75
2022-11-22T09:34:37.410Z,19.17
2022-11-22T09:37:04.155Z,15.77
2022-11-22T09:39:30.970Z,17.10
2022-11-22T09:42:20.860Z,14.32
2022-11-22T09:44:53.272Z,16.50
2022-11-22T09:48:09.865Z,17.35
2022-11-22T09:51:02.441Z,15.38
2022-11-22T09:53:45.014Z,16.00
2022-11-22T09:56:13.751Z,17.80
2022-11-22T09:58:47.982Z,16.60
2022-11-22T10:01:17.797Z,20.73
2022-11-22T10:03:53.551Z,13.82
2022-11-22T10:06:30.320Z,13.20
2022-11-22T10:09:18.808Z,12.73
2022-11-22T10:12:01.015Z,15.90
2022-11-22T10:15:06.315Z,13.93
2022-11-22T10:17:51.164Z,15.35
2022-11-22T10:20:26.410Z,14.85
2022-11-22T10:25:31.594Z,12.73
2022-11-22T10:28:09.879Z,10.95
2022-11-22T10:30:40.834Z,13.80
2022-11-22T10:33:18.547Z,12.57
2022-11-22T10:36:04.003Z,12.73
2022-11-22T10:38:37.641Z,11.45
2022-11-22T10:41:31.859Z,14.85
2022-11-22T10:44:24.887Z,11.65
2022-11-22T10:47:09.558Z,13.98
2022-11-22T10:50:02.540Z,15.38
2022-11-22T10:52:45.677Z,14.77
2022-11-22T10:55:47.140Z,13.10
2022-11-22T10:58:19.950Z,13.57
2022-11-22T11:00:50.721Z,15.63
2022-11-22T11:03:33.535Z,17.48
2022-11-22T11:06:24.072Z,19.50
2022-11-22T11:09:48.009Z,19.90
2022-11-22T11:11:44.421Z,20.75
2022-11-22T11:14:30.553Z,18.90
2022-11-22T11:16:58.263Z,17.23
2022-11-22T11:19:25.798Z,20.40
2022-11-22T11:22:30.444Z,19.80
2022-11-22T11:25:40.786Z,20.77
2022-11-22T11:28:12.055Z,16.75
2022-11-22T11:30:51.626Z,18.92
2022-11-22T11:33:26.108Z,16.92
2022-11-22T11:35:56.825Z,17.40
2022-11-22T11:38:42.305Z,15.30
2022-11-22T11:41:40.286Z,16.23
2022-11-22T11:44:31.917Z,19.13
2022-11-22T11:46:59.345Z,15.13
2022-11-22T11:49:28.546Z,27.17
2022-11-22T11:51:57.110Z,15.25
2022-11-22T11:54:40.584Z,16.85
2022-11-22T11:57:36.755Z,15.18
2022-11-22T12:00:06.587Z,15.65
2022-11-22T12:02:38.907Z,16.08
2022-11-22T12:05:27.130Z,13.77
2022-11-22T12:07:53.994Z,16.55
2022-11-22T12:10:32.844Z,11.90
2022-11-22T12:13:20.415Z,13.18
2022-11-22T12:16:14.418Z,13.23
2022-11-22T12:19:26.069Z,15.40
2022-11-22T12:22:01.332Z,11.10
2022-11-22T12:27:40.740Z,11.52
2022-11-22T12:30:12.539Z,9.50
2022-11-22T12:32:48.039Z,10.77
2022-11-22T12:35:20.558Z,10.55
2022-11-22T12:38:20.886Z,10.95
2022-11-22T12:40:51.634Z,10.60
2022-11-22T12:43:23.364Z,13.65
2022-11-22T12:45:55.680Z,10.38
2022-11-22T12:48:29.162Z,15.45
2022-11-22T12:51:48.617Z,14.63
2022-11-22T12:54:18.516Z,11.52
2022-11-22T12:56:55.023Z,11.25
2022-11-22T12:59:33.158Z,12.32
2022-11-22T13:02:29.098Z,13.35
2022-11-22T13:05:06.440Z,16.67
2022-11-22T13:07:36.242Z,15.82
2022-11-22T13:10:12.314Z,11.55
2022-11-22T13:12:41.200Z,13.23
2022-11-22T13:15:12.937Z,10.57
2022-11-22T13:17:39.726Z,16.65
2022-11-22T13:20:19.714Z,11.25
2022-11-22T13:23:04.750Z,10.65
2022-11-22T13:25:57.594Z,12.45
2022-11-22T13:28:26.737Z,9.07
2022-11-22T13:31:15.950Z,11.18
2022-11-22T13:33:53.838Z,17.52
2022-11-22T13:36:29.580Z,13.02
2022-11-22T13:38:58.044Z,12.15
2022-11-22T13:41:26.776Z,10.30
2022-11-22T13:43:57.977Z,9.43
2022-11-22T13:46:55.101Z,11.25
2022-11-22T13:49:47.981Z,11.00
2022-11-22T13:54:48.111Z,11.55
2022-11-22T13:57:29.725Z,10.25
2022-11-22T14:00:31.780Z,11.52
2022-11-22T14:03:20.318Z,8.68
2022-11-22T14:05:49.798Z,10.30
2022-11-22T14:08:49.246Z,11.10
2022-11-22T14:11:40.869Z,11.90
2022-11-22T14:14:37.758Z,8.65
2022-11-22T14:17:20.448Z,10.80
2022-11-22T14:19:49.931Z,11.32
2022-11-22T14:22:20.619Z,12.32
2022-11-22T14:24:57.185Z,13.25
2022-11-22T14:27:43.696Z,10.65
2022-11-22T14:30:20.631Z,10.32
2022-11-22T14:33:04.526Z,13.98
2022-11-22T14:35:35.768Z,10.75
2022-11-22T14:38:28.955Z,13.20
2022-11-22T14:41:26.957Z,10.80
2022-11-22T14:44:15.175Z,10.35
2022-11-22T14:46:55.473Z,11.35
2022-11-22T14:49:25.095Z,11.60
2022-11-22T14:51:53.262Z,16.90
2022-11-22T14:54:23.579Z,15.07
2022-11-22T14:56:50.897Z,13.15
2022-11-22T14:59:43.835Z,14.25
2022-11-22T15:02:25.468Z,11.68
2022-11-22T15:09:11.958Z,11.85
2022-11-22T15:09:20.788Z,12.50
2022-11-22T15:11:46.775Z,11.43
2022-11-22T15:14:31.735Z,14.38
2022-11-22T15:59:41.787Z,16.05
2022-11-22T16:02:23.256Z,14.50
2022-11-22T16:06:09.913Z,10.45
2022-11-22T16:07:46.689Z,15.20
2022-11-22T16:10:21.860Z,13.40
2022-11-22T16:12:49.053Z,12.13
2022-11-22T16:15:24.490Z,11.27
2022-11-22T16:20:32.605Z,10.80
2022-11-22T16:23:14.699Z,18.48
2022-11-22T16:25:44.514Z,10.10
2022-11-22T16:28:29.961Z,11.35
2022-11-22T16:30:59.026Z,10.77
2022-11-22T16:33:25.800Z,10.63
2022-11-22T16:35:57.245Z,14.40
2022-11-22T16:38:24.782Z,11.07
2022-11-22T16:40:52.007Z,9.55
2022-11-22T16:43:20.569Z,9.68
2022-11-22T16:45:47.634Z,10.75
2022-11-22T16:48:34.816Z,10.57
2022-11-22T16:51:06.486Z,12.15
2022-11-22T16:53:42.516Z,10.35
2022-11-22T16:56:28.397Z,13.15
2022-11-22T16:58:56.544Z,10.13
2022-11-22T17:01:26.557Z,12.63
2022-11-22T17:03:55.542Z,18.25
2022-11-22T17:06:25.055Z,16.52
2022-11-22T17:08:54.938Z,10.93
2022-11-22T17:11:24.755Z,16.35
2022-11-22T17:13:51.826Z,13.15
2022-11-22T17:16:18.586Z,10.88
2022-11-22T17:18:46.637Z,10.80
2022-11-22T17:21:37.257Z,10.88
2022-11-22T17:24:07.046Z,8.43
2022-11-22T17:26:34.911Z,10.73
2022-11-22T17:29:01.863Z,13.23
2022-11-22T17:31:28.857Z,11.73
2022-11-22T17:33:58.415Z,12.27
2022-11-22T17:36:35.323Z,11.40
2022-11-22T17:39:05.075Z,11.13
2022-11-22T17:41:32.278Z,11.65
2022-11-22T17:43:59.382Z,12.43
2022-11-22T17:46:26.975Z,11.52
2022-11-22T17:48:55.136Z,9.20
2022-11-22T17:51:22.037Z,10.52
2022-11-22T17:53:49.015Z,11.35
2022-11-22T17:56:16.344Z,9.85
2022-11-22T17:58:43.070Z,11.20
2022-11-22T18:01:14.676Z,8.48
2022-11-22T18:03:42.130Z,10.50
2022-11-22T18:06:10.170Z,9.68
2022-11-22T18:08:36.964Z,9.65
2022-11-22T18:11:04.542Z,11.52
2022-11-22T18:13:33.630Z,10.55
2022-11-22T18:16:03.433Z,10.65
2022-11-22T18:18:55.827Z,13.00
2022-11-22T18:21:17.876Z,9.05
2022-11-22T18:23:45.364Z,12.68
2022-11-22T18:31:54.349Z,9.90
2022-11-22T18:34:24.359Z,12.75
2022-11-22T18:36:57.712Z,13.32
2022-11-22T18:39:29.502Z,11.90
2022-11-22T18:41:56.833Z,8.10
2022-11-22T18:44:23.567Z,10.60
2022-11-22T18:46:50.221Z,13.63
2022-11-22T18:49:16.946Z,18.25
2022-11-22T18:51:43.615Z,11.80
2022-11-22T18:54:10.676Z,10.60
2022-11-22T18:56:40.671Z,22.10
2022-11-22T18:59:09.814Z,14.07
2022-11-22T19:01:36.589Z,10.88
2022-11-22T19:04:03.492Z,9.77
2022-11-22T19:06:30.643Z,12.10
2022-11-22T19:08:57.851Z,10.27
2022-11-22T19:11:24.910Z,10.07
2022-11-22T19:13:51.731Z,14.10
2022-11-22T19:16:21.911Z,10.75
2022-11-22T19:18:49.874Z,13.45
2022-11-22T19:21:19.284Z,10.32
2022-11-22T19:23:46.093Z,14.05
2022-11-22T19:26:19.528Z,13.52
2022-11-22T19:28:50.148Z,42.30
2022-11-22T19:31:19.434Z,10.60
2022-11-22T19:36:15.430Z,13.05
2022-11-22T19:38:42.681Z,12.68
2022-11-22T19:41:17.327Z,15.68
2022-11-22T19:43:44.199Z,18.17
2022-11-22T19:46:11.307Z,14.02
2022-11-22T19:48:42.392Z,10.95
2022-11-22T19:51:14.228Z,13.02
2022-11-22T19:53:42.001Z,15.20
2022-11-22T19:56:16.815Z,12.20
2022-11-22T19:58:44.587Z,14.15
2022-11-22T20:01:14.522Z,11.77
2022-11-22T20:03:42.387Z,11.98
2022-11-22T20:06:11.175Z,15.63
2022-11-22T20:08:38.088Z,26.88
2022-11-22T20:11:11.054Z,14.73
2022-11-22T20:13:45.845Z,17.05
2022-11-22T20:16:22.183Z,14.18
2022-11-22T20:19:00.035Z,14.52
2022-11-22T20:21:28.429Z,14.65
2022-11-22T20:23:55.378Z,15.45
2022-11-22T20:26:22.916Z,14.07
2022-11-22T20:28:55.430Z,11.13
2022-11-22T20:31:23.384Z,16.63
2022-11-22T20:33:52.090Z,11.45
2022-11-22T20:36:26.941Z,14.13
2022-11-22T20:38:53.836Z,14.68
2022-11-22T20:41:23.109Z,13.45
2022-11-22T20:43:49.811Z,11.73
2022-11-22T20:46:18.509Z,11.48
2022-11-22T20:48:49.770Z,14.82
2022-11-22T20:51:18.950Z,10.98
2022-11-22T20:56:12.720Z,14.27
2022-11-22T20:58:39.891Z,15.40
2022-11-22T21:01:08.438Z,13.55
2022-11-22T21:03:35.243Z,14.13
2022-11-22T21:06:02.994Z,11.15
2022-11-22T21:08:29.742Z,14.70
2022-11-22T21:11:32.148Z,11.98
2022-11-22T21:13:58.904Z,12.45
2022-11-22T21:16:27.737Z,14.77
2022-11-22T21:18:55.305Z,15.45
2022-11-22T21:21:24.051Z,12.70
2022-11-22T21:23:56.606Z,16.63
2022-11-22T21:26:24.386Z,10.25
2022-11-22T21:28:51.251Z,15.27
2022-11-22T21:31:18.115Z,12.80
2022-11-22T21:33:45.764Z,14.02
2022-11-22T21:36:12.793Z,11.48
2022-11-22T21:38:39.573Z,15.10
2022-11-22T21:41:38.230Z,13.13
2022-11-22T21:43:56.303Z,13.98
2022-11-22T21:46:23.546Z,13.55
2022-11-22T21:48:50.560Z,12.77
2022-11-22T21:51:17.463Z,14.40
2022-11-22T21:53:44.144Z,17.05
2022-11-22T21:56:10.776Z,17.15
2022-11-22T21:58:37.435Z,15.40
2022-11-22T22:01:10.941Z,10.23
2022-11-22T22:03:40.481Z,11.00
2022-11-22T22:06:07.562Z,10.43
2022-11-22T22:08:34.320Z,16.65
2022-11-22T22:11:02.595Z,15.70
2022-11-22T22:13:30.820Z,17.50
2022-11-22T22:15:58.989Z,14.63
2022-11-22T22:18:32.619Z,11.45
2022-11-22T22:21:07.420Z,10.80
2022-11-22T22:23:35.072Z,15.10
2022-11-22T22:26:03.939Z,14.32
2022-11-22T22:28:32.118Z,15.27
2022-11-22T22:31:07.576Z,12.88
2022-11-22T22:33:38.193Z,12.27
2022-11-22T22:36:06.151Z,13.20
2022-11-22T22:38:33.501Z,15.23
2022-11-22T22:41:02.019Z,12.85
2022-11-22T22:43:33.746Z,13.80
2022-11-22T22:46:06.679Z,12.00
2022-11-22T22:48:34.440Z,12.90
2022-11-22T22:51:15.210Z,12.52
2022-11-22T22:53:42.549Z,14.25
2022-11-22T22:56:11.086Z,13.32
2022-11-22T22:58:38.011Z,15.00
2022-11-22T23:01:27.616Z,13.35
2022-11-22T23:03:59.799Z,17.52
2022-11-22T23:06:32.327Z,14.15
2022-11-22T23:08:59.740Z,17.33
2022-11-22T23:11:49.360Z,13.98
2022-11-22T23:14:18.976Z,12.38
2022-11-22T23:16:45.642Z,13.18
2022-11-22T23:19:12.778Z,15.88
2022-11-22T23:21:39.660Z,17.15
2022-11-22T23:24:07.137Z,14.60
2022-11-22T23:26:33.870Z,15.48
2022-11-22T23:29:00.714Z,13.95
2022-11-22T23:31:27.600Z,13.93
2022-11-22T23:33:54.507Z,14.30
2022-11-22T23:36:22.919Z,14.98
2022-11-22T23:38:49.636Z,15.70
2022-11-22T23:41:21.360Z,13.30
2022-11-22T23:43:52.259Z,15.85
2022-11-22T23:46:18.986Z,14.77
2022-11-22T23:48:46.842Z,13.43
2022-11-22T23:51:14.438Z,13.63
2022-11-22T23:53:41.456Z,19.88
2022-11-22T23:56:10.320Z,18.52
2022-11-22T23:58:37.575Z,18.48
